CES9399 ZGHA-ZYTX
Flight info
| Callsign | CES9399 |
|---|---|
| Flight time | N/A |
| Altitude | 33100 |
| Route | K0909S1130 DCT GUDRO W56 DOSKU/K0891S1190 W56 LEBUN/K0893S1160 W56 NUDKU/K0891S1190 W56 VYK W34 PAMRU W244 IGMOR W36 ENVAV W243 OTBUL W35 CHG A575 OMDUS DCT |
| Aircraft | B77W/H-SDE1E2E3FGHIJ2J3J4J5M1RWXY/LB1D1 |
Departure
| Time | 2026-04-17 06:45 |
|---|---|
| Airport | Changsha Huanghua International Airport (ZGHA) |
Arrival
| Time | N/A |
|---|---|
| Airport | Shenyang Taoxian International Airport (ZYTX) |
| Time | Latitude | Longitude | Altitude | Speed | Heading |
|---|---|---|---|---|---|
| 2026-04-17 06:21 | 28.18787 | 113.21589 | 220 ft | 0 kts | 222° |
| 2026-04-17 06:38 | 28.18805 | 113.21608 | 219 ft | 3 kts | 222° |
| 2026-04-17 06:38 | 28.18836 | 113.21640 | 220 ft | 8 kts | 222° |
| 2026-04-17 06:38 | 28.18876 | 113.21680 | 227 ft | 8 kts | 221° |
| 2026-04-17 06:39 | 28.18918 | 113.21684 | 220 ft | 0 kts | 182° |
| 2026-04-17 06:40 | 28.18916 | 113.21684 | 220 ft | 5 kts | 182° |
| 2026-04-17 06:40 | 28.18813 | 113.21686 | 220 ft | 17 kts | 177° |
| 2026-04-17 06:40 | 28.18694 | 113.21693 | 221 ft | 17 kts | 177° |
| 2026-04-17 06:41 | 28.18591 | 113.21739 | 224 ft | 17 kts | 115° |
| 2026-04-17 06:41 | 28.18500 | 113.21815 | 222 ft | 22 kts | 176° |
| 2026-04-17 06:41 | 28.18329 | 113.21827 | 222 ft | 24 kts | 176° |
| 2026-04-17 06:41 | 28.18160 | 113.21838 | 223 ft | 24 kts | 176° |
| 2026-04-17 06:42 | 28.17992 | 113.21850 | 220 ft | 24 kts | 176° |
| 2026-04-17 06:42 | 28.17824 | 113.21860 | 221 ft | 24 kts | 176° |
| 2026-04-17 06:42 | 28.17735 | 113.21993 | 221 ft | 24 kts | 82° |
| 2026-04-17 06:42 | 28.17797 | 113.22043 | 220 ft | 0 kts | 356° |
| 2026-04-17 06:44 | 28.17848 | 113.22039 | 224 ft | 37 kts | 358° |
| 2026-04-17 06:44 | 28.18477 | 113.22003 | 223 ft | 142 kts | 356° |
| 2026-04-17 06:44 | 28.19723 | 113.21934 | 699 ft | 190 kts | 357° |
| 2026-04-17 06:45 | 28.21073 | 113.21844 | 2057 ft | 198 kts | 355° |
| 2026-04-17 06:45 | 28.22480 | 113.21702 | 3422 ft | 214 kts | 356° |
| 2026-04-17 06:45 | 28.24082 | 113.21657 | 4484 ft | 243 kts | 3° |
| 2026-04-17 06:45 | 28.25655 | 113.22189 | 5909 ft | 223 kts | 52° |
| 2026-04-17 06:46 | 28.26602 | 113.23491 | 7207 ft | 229 kts | 49° |
| 2026-04-17 06:46 | 28.27615 | 113.24973 | 6711 ft | 249 kts | 55° |
| 2026-04-17 06:46 | 28.28675 | 113.26537 | 6300 ft | 249 kts | 47° |
| 2026-04-17 06:46 | 28.29802 | 113.27963 | 6285 ft | 234 kts | 47° |
| 2026-04-17 06:47 | 28.30874 | 113.29342 | 6586 ft | 237 kts | 48° |
| 2026-04-17 06:47 | 28.31956 | 113.30782 | 7107 ft | 253 kts | 49° |
| 2026-04-17 06:47 | 28.33160 | 113.32426 | 7821 ft | 288 kts | 49° |
| 2026-04-17 06:47 | 28.34475 | 113.34258 | 8827 ft | 309 kts | 50° |
| 2026-04-17 06:48 | 28.35835 | 113.36183 | 9874 ft | 327 kts | 50° |
| 2026-04-17 06:48 | 28.37302 | 113.38283 | 10872 ft | 343 kts | 51° |
| 2026-04-17 06:48 | 28.38853 | 113.40393 | 11840 ft | 353 kts | 43° |
| 2026-04-17 06:48 | 28.40888 | 113.41988 | 12841 ft | 362 kts | 22° |
| 2026-04-17 06:49 | 28.43294 | 113.42736 | 13877 ft | 365 kts | 7° |
| 2026-04-17 06:49 | 28.45855 | 113.43220 | 14838 ft | 372 kts | 7° |
| 2026-04-17 06:49 | 28.48398 | 113.43743 | 15796 ft | 379 kts | 8° |
| 2026-04-17 06:49 | 28.51010 | 113.44304 | 16793 ft | 384 kts | 8° |
| 2026-04-17 06:50 | 28.53649 | 113.44884 | 17824 ft | 387 kts | 8° |
| 2026-04-17 06:50 | 28.56298 | 113.45475 | 18805 ft | 388 kts | 8° |
| 2026-04-17 06:50 | 28.58952 | 113.46071 | 19723 ft | 389 kts | 7° |
| 2026-04-17 06:50 | 28.61603 | 113.46669 | 20651 ft | 388 kts | 7° |
| 2026-04-17 06:51 | 28.64238 | 113.47264 | 21621 ft | 384 kts | 7° |
| 2026-04-17 06:51 | 28.66847 | 113.47856 | 22552 ft | 383 kts | 6° |
| 2026-04-17 06:51 | 28.69489 | 113.48449 | 23113 ft | 391 kts | 6° |
| 2026-04-17 06:51 | 28.72180 | 113.49052 | 23643 ft | 398 kts | 6° |
| 2026-04-17 06:52 | 28.74927 | 113.49672 | 24107 ft | 404 kts | 5° |
| 2026-04-17 06:52 | 28.77714 | 113.50198 | 24561 ft | 409 kts | 359° |
| 2026-04-17 06:52 | 28.80572 | 113.50439 | 25045 ft | 415 kts | 357° |
| 2026-04-17 06:52 | 28.83481 | 113.50627 | 25543 ft | 423 kts | 356° |
| 2026-04-17 06:53 | 28.86446 | 113.50811 | 26033 ft | 430 kts | 356° |
| 2026-04-17 06:53 | 28.89461 | 113.51005 | 26516 ft | 437 kts | 356° |
| 2026-04-17 06:53 | 28.92518 | 113.51210 | 27027 ft | 443 kts | 356° |
| 2026-04-17 06:53 | 28.95581 | 113.51426 | 27492 ft | 449 kts | 356° |
| 2026-04-17 06:54 | 28.98728 | 113.51652 | 27889 ft | 457 kts | 356° |
| 2026-04-17 06:54 | 29.01923 | 113.51885 | 28304 ft | 463 kts | 355° |
| 2026-04-17 06:54 | 29.05161 | 113.52115 | 28698 ft | 470 kts | 355° |
| 2026-04-17 06:54 | 29.08452 | 113.52350 | 29118 ft | 476 kts | 355° |
| 2026-04-17 06:55 | 29.11763 | 113.52593 | 29535 ft | 477 kts | 355° |
| 2026-04-17 06:55 | 29.15085 | 113.52839 | 29931 ft | 479 kts | 355° |
| 2026-04-17 06:55 | 29.18414 | 113.53083 | 30291 ft | 479 kts | 355° |
| 2026-04-17 06:55 | 29.21743 | 113.53326 | 30627 ft | 480 kts | 355° |
| 2026-04-17 06:56 | 29.25072 | 113.53568 | 30975 ft | 480 kts | 355° |
| 2026-04-17 06:56 | 29.28404 | 113.53809 | 31321 ft | 479 kts | 355° |
| 2026-04-17 06:56 | 29.31728 | 113.54071 | 31680 ft | 479 kts | 355° |
| 2026-04-17 06:56 | 29.35052 | 113.54358 | 32059 ft | 478 kts | 355° |
| 2026-04-17 06:57 | 29.38365 | 113.54653 | 32435 ft | 477 kts | 356° |
| 2026-04-17 06:57 | 29.41677 | 113.54950 | 32800 ft | 476 kts | 355° |
| 2026-04-17 06:57 | 29.44973 | 113.55241 | 33054 ft | 477 kts | 355° |
| 2026-04-17 06:58 | 29.51700 | 113.55818 | 33212 ft | 489 kts | 355° |
| 2026-04-17 06:58 | 29.55091 | 113.56113 | 33616 ft | 487 kts | 355° |
| 2026-04-17 06:58 | 29.58460 | 113.56410 | 34017 ft | 485 kts | 355° |
| 2026-04-17 06:58 | 29.61776 | 113.56702 | 34397 ft | 483 kts | 355° |
| 2026-04-17 06:59 | 29.65119 | 113.56995 | 34752 ft | 480 kts | 355° |
| 2026-04-17 06:59 | 29.68456 | 113.57285 | 34987 ft | 481 kts | 355° |
| 2026-04-17 06:59 | 29.71824 | 113.57574 | 35039 ft | 487 kts | 355° |
| 2026-04-17 07:00 | 29.78659 | 113.58162 | 35100 ft | 499 kts | 355° |
| 2026-04-17 07:00 | 29.85668 | 113.58777 | 35110 ft | 510 kts | 355° |
| 2026-04-17 07:01 | 29.92831 | 113.59696 | 35090 ft | 530 kts | 4° |
| 2026-04-17 07:01 | 30.00029 | 113.62121 | 35089 ft | 550 kts | 15° |
| 2026-04-17 07:02 | 30.07111 | 113.65680 | 35095 ft | 558 kts | 18° |
| 2026-04-17 07:02 | 30.14243 | 113.69363 | 35112 ft | 563 kts | 18° |
| 2026-04-17 07:03 | 30.21440 | 113.73004 | 35091 ft | 565 kts | 17° |
| 2026-04-17 07:03 | 30.28623 | 113.76595 | 35070 ft | 566 kts | 17° |
| 2026-04-17 07:04 | 30.35843 | 113.80208 | 35119 ft | 565 kts | 17° |
| 2026-04-17 07:04 | 30.43064 | 113.83835 | 35083 ft | 565 kts | 17° |
| 2026-04-17 07:05 | 30.50266 | 113.87461 | 35073 ft | 563 kts | 17° |
| 2026-04-17 07:05 | 30.57440 | 113.91077 | 35079 ft | 562 kts | 17° |
| 2026-04-17 07:06 | 30.64603 | 113.94690 | 35088 ft | 560 kts | 17° |
| 2026-04-17 07:06 | 30.71780 | 113.98166 | 35085 ft | 560 kts | 19° |
| 2026-04-17 07:07 | 30.78800 | 114.02166 | 35088 ft | 561 kts | 21° |
| 2026-04-17 07:07 | 30.85846 | 114.06060 | 35100 ft | 560 kts | 19° |
| 2026-04-17 07:08 | 30.92932 | 114.09837 | 35088 ft | 560 kts | 19° |
| 2026-04-17 07:08 | 31.00012 | 114.13669 | 35063 ft | 561 kts | 19° |
| 2026-04-17 07:09 | 31.07091 | 114.17522 | 35101 ft | 561 kts | 19° |
| 2026-04-17 07:09 | 31.14185 | 114.21378 | 35079 ft | 562 kts | 19° |
| 2026-04-17 07:10 | 31.21282 | 114.25246 | 35071 ft | 563 kts | 19° |
| 2026-04-17 07:10 | 31.28377 | 114.29118 | 35087 ft | 563 kts | 19° |
| 2026-04-17 07:11 | 31.35662 | 114.32193 | 35083 ft | 551 kts | 6° |
| 2026-04-17 07:11 | 31.43137 | 114.33556 | 35072 ft | 536 kts | 354° |
| 2026-04-17 07:12 | 31.50509 | 114.33679 | 35079 ft | 532 kts | 353° |
| 2026-04-17 07:12 | 31.57909 | 114.33817 | 35073 ft | 532 kts | 353° |
| 2026-04-17 07:13 | 31.65315 | 114.34035 | 35086 ft | 532 kts | 354° |
| 2026-04-17 07:13 | 31.72736 | 114.34258 | 35071 ft | 533 kts | 354° |
| 2026-04-17 07:14 | 31.80148 | 114.34482 | 35102 ft | 533 kts | 354° |
| 2026-04-17 07:14 | 31.87575 | 114.34709 | 35087 ft | 534 kts | 354° |
| 2026-04-17 07:15 | 31.95006 | 114.34932 | 35074 ft | 534 kts | 354° |
| 2026-04-17 07:15 | 32.02430 | 114.35156 | 35079 ft | 534 kts | 354° |
| 2026-04-17 07:16 | 32.09863 | 114.35381 | 35083 ft | 534 kts | 354° |
| 2026-04-17 07:16 | 32.17237 | 114.35605 | 35077 ft | 533 kts | 354° |
| 2026-04-17 07:17 | 32.24654 | 114.35830 | 35075 ft | 532 kts | 354° |
| 2026-04-17 07:17 | 32.35787 | 114.36717 | 35075 ft | 535 kts | 357° |
| 2026-04-17 07:18 | 32.43186 | 114.37456 | 35074 ft | 532 kts | 357° |
| 2026-04-17 07:18 | 32.50560 | 114.38132 | 35081 ft | 531 kts | 356° |
| 2026-04-17 07:19 | 32.57915 | 114.38800 | 35064 ft | 529 kts | 356° |
| 2026-04-17 07:19 | 32.65254 | 114.39520 | 35076 ft | 527 kts | 356° |
| 2026-04-17 07:20 | 32.71340 | 114.40039 | 35079 ft | 528 kts | 356° |
| 2026-04-17 07:20 | 32.79860 | 114.40827 | 35092 ft | 528 kts | 357° |
| 2026-04-17 07:21 | 32.87185 | 114.41518 | 35084 ft | 528 kts | 357° |
| 2026-04-17 07:21 | 32.93311 | 114.42093 | 35081 ft | 527 kts | 357° |
| 2026-04-17 07:22 | 33.00575 | 114.42773 | 35113 ft | 527 kts | 358° |
| 2026-04-17 07:22 | 33.07882 | 114.43456 | 35091 ft | 526 kts | 358° |
| 2026-04-17 07:23 | 33.15180 | 114.44142 | 35082 ft | 525 kts | 358° |
| 2026-04-17 07:23 | 33.22465 | 114.44827 | 35084 ft | 525 kts | 358° |
| 2026-04-17 07:24 | 33.29758 | 114.45514 | 35092 ft | 526 kts | 357° |
| 2026-04-17 07:24 | 33.37076 | 114.46200 | 35093 ft | 528 kts | 357° |
| 2026-04-17 07:25 | 33.44407 | 114.46890 | 35088 ft | 529 kts | 357° |
| 2026-04-17 07:25 | 33.51761 | 114.47584 | 35100 ft | 531 kts | 357° |
| 2026-04-17 07:26 | 33.59090 | 114.48277 | 35095 ft | 532 kts | 357° |
| 2026-04-17 07:26 | 33.66473 | 114.48911 | 35092 ft | 531 kts | 356° |
| 2026-04-17 07:27 | 33.73857 | 114.49488 | 35103 ft | 533 kts | 357° |
| 2026-04-17 07:27 | 33.81269 | 114.50334 | 35087 ft | 534 kts | 358° |
| 2026-04-17 07:28 | 33.88674 | 114.51099 | 35086 ft | 533 kts | 356° |
| 2026-04-17 07:28 | 33.96064 | 114.51769 | 35091 ft | 532 kts | 356° |
| 2026-04-17 07:29 | 34.03408 | 114.52442 | 35088 ft | 532 kts | 356° |
| 2026-04-17 07:29 | 34.10789 | 114.53137 | 35089 ft | 531 kts | 356° |
| 2026-04-17 07:30 | 34.18157 | 114.53838 | 35088 ft | 531 kts | 356° |
| 2026-04-17 07:30 | 34.25524 | 114.54538 | 35094 ft | 531 kts | 356° |
| 2026-04-17 07:31 | 34.32904 | 114.55241 | 35085 ft | 531 kts | 357° |
| 2026-04-17 07:31 | 34.39021 | 114.55823 | 35084 ft | 530 kts | 357° |